Terminal Aerodrome Forecast
Issued by NWS

Home | Current Version | Previous Version | Text Only | Print | Product List | Glossary On
Versions: 1 2 3 4 5 6 7 8 9 10 11 12 13 14 15 16
000
FTUS45 KSLC 292322
TAFOGD
TAF
KOGD 292322Z 3000/3024 17008KT P6SM SCT060 BKN100
     FM301100 17011KT P6SM VCSH SCT040 BKN070
     FM302200 30015G23KT 6SM -RA SCT020 BKN035=

USA.gov is the U.S. government's official web portal to all federal, state and local government web resources and services.